createdAt,value
2022-09-03T00:02:10.294Z,74.88
2022-09-03T00:07:21.327Z,76.32
2022-09-03T00:12:29.245Z,76.15
2022-09-03T00:17:35.881Z,76.23
2022-09-03T00:22:44.669Z,76.38
2022-09-03T00:27:52.919Z,76.85
2022-09-03T00:33:00.449Z,76.72
2022-09-03T00:38:05.732Z,76.39
2022-09-03T00:43:19.665Z,76.50
2022-09-03T00:48:27.967Z,76.60
2022-09-03T00:53:41.424Z,78.09
2022-09-03T00:58:56.858Z,77.88
2022-09-03T01:04:13.629Z,78.69
2022-09-03T01:09:41.305Z,79.02
2022-09-03T01:14:56.081Z,79.00
2022-09-03T01:20:15.593Z,79.51
2022-09-03T01:25:33.454Z,80.01
2022-09-03T01:30:41.317Z,80.57
2022-09-03T01:35:48.330Z,80.66
2022-09-03T01:41:24.484Z,80.01
2022-09-03T01:46:38.852Z,79.96
2022-09-03T01:51:42.869Z,79.40
2022-09-03T01:57:19.114Z,79.87
2022-09-03T02:02:32.702Z,80.04
2022-09-03T02:07:39.462Z,80.58
2022-09-03T02:12:45.284Z,81.27
2022-09-03T02:17:51.945Z,81.13
2022-09-03T02:22:55.321Z,80.97
2022-09-03T02:27:59.116Z,81.13
2022-09-03T02:33:03.584Z,80.88
2022-09-03T02:38:14.018Z,81.08
2022-09-03T02:43:21.340Z,81.27
2022-09-03T02:48:30.152Z,81.20
2022-09-03T02:53:32.916Z,81.15
2022-09-03T02:58:35.701Z,81.19
2022-09-03T03:03:40.722Z,81.81
2022-09-03T03:08:44.192Z,81.71
2022-09-03T03:13:47.858Z,81.53
2022-09-03T03:18:52.748Z,81.56
2022-09-03T03:23:56.146Z,81.56
2022-09-03T03:29:00.748Z,81.46
2022-09-03T03:34:05.097Z,81.60
2022-09-03T03:39:07.891Z,81.92
2022-09-03T03:44:15.300Z,81.98
2022-09-03T03:49:19.408Z,82.08
2022-09-03T03:54:22.481Z,81.71
2022-09-03T03:59:25.246Z,81.81
2022-09-03T04:04:29.440Z,81.99
2022-09-03T04:09:32.238Z,82.57
2022-09-03T04:14:35.399Z,82.61
2022-09-03T04:19:39.520Z,82.90
2022-09-03T04:24:42.325Z,82.39
2022-09-03T04:29:45.117Z,82.38
2022-09-03T04:34:49.713Z,82.26
2022-09-03T04:39:54.213Z,82.13
2022-09-03T04:44:57.005Z,81.61
2022-09-03T04:50:01.706Z,81.88
2022-09-03T04:55:04.886Z,82.16
2022-09-03T05:00:12.041Z,82.51
2022-09-03T05:05:16.541Z,82.26
2022-09-03T05:10:21.309Z,82.43
2022-09-03T05:15:23.870Z,82.49
2022-09-03T05:20:29.870Z,82.84
2022-09-03T05:25:33.220Z,83.26
2022-09-03T05:30:36.492Z,84.02
2022-09-03T05:35:41.615Z,84.20
2022-09-03T05:40:44.629Z,84.38
2022-09-03T05:45:47.495Z,84.32
2022-09-03T05:51:00.920Z,84.66
2022-09-03T05:56:07.098Z,84.66
2022-09-03T06:01:14.354Z,85.02
2022-09-03T06:06:18.481Z,85.21
2022-09-03T06:11:21.837Z,85.02
2022-09-03T06:16:30.578Z,85.28
2022-09-03T06:21:40.539Z,85.10
2022-09-03T06:26:43.428Z,85.03
2022-09-03T06:31:48.539Z,84.93
2022-09-03T06:36:52.809Z,85.16
2022-09-03T06:41:57.453Z,84.86
2022-09-03T06:47:01.519Z,84.95
2022-09-03T06:52:05.825Z,85.04
2022-09-03T06:57:08.628Z,85.32
2022-09-03T07:02:11.641Z,85.63
2022-09-03T07:07:16.329Z,85.86
2022-09-03T07:12:19.305Z,85.90
2022-09-03T07:17:22.058Z,85.96
2022-09-03T07:22:31.655Z,86.16
2022-09-03T07:27:35.896Z,85.09
2022-09-03T07:32:40.937Z,84.91
2022-09-03T07:37:45.089Z,84.99
2022-09-03T07:42:51.026Z,84.07
2022-09-03T07:47:57.946Z,84.22
2022-09-03T07:53:02.075Z,83.77
2022-09-03T07:58:04.837Z,83.68
2022-09-03T08:03:08.792Z,83.32
2022-09-03T08:08:15.601Z,83.35
2022-09-03T08:13:19.392Z,84.33
2022-09-03T08:18:22.826Z,84.10
2022-09-03T08:23:27.314Z,83.88
2022-09-03T08:28:34.309Z,82.94
2022-09-03T08:33:40.560Z,82.84
2022-09-03T08:38:46.403Z,82.21
2022-09-03T08:44:25.215Z,80.28
2022-09-03T08:49:32.377Z,78.32
2022-09-03T08:54:38.795Z,77.66
2022-09-03T08:59:41.622Z,77.56
2022-09-03T09:05:00.248Z,77.04
2022-09-03T09:10:13.957Z,77.43
2022-09-03T09:15:29.530Z,76.68
2022-09-03T09:20:41.677Z,76.88
2022-09-03T09:25:50.081Z,77.66
2022-09-03T09:30:56.403Z,78.93
2022-09-03T09:36:01.329Z,78.97
2022-09-03T09:41:16.416Z,77.01
2022-09-03T09:46:23.111Z,75.18
2022-09-03T09:51:30.911Z,73.39
2022-09-03T09:56:35.054Z,72.50
2022-09-03T10:01:39.053Z,73.67
2022-09-03T10:06:57.965Z,72.36
2022-09-03T10:12:15.268Z,71.16
2022-09-03T10:17:24.922Z,70.80
2022-09-03T10:22:56.573Z,71.38
2022-09-03T10:28:02.044Z,72.32
2022-09-03T10:33:12.723Z,71.11
2022-09-03T10:38:20.942Z,72.42
2022-09-03T10:43:53.226Z,71.08
2022-09-03T10:49:21.753Z,70.87
2022-09-03T10:54:48.409Z,69.68
2022-09-03T11:00:07.657Z,72.08
2022-09-03T11:05:16.265Z,72.39
2022-09-03T11:10:30.893Z,71.08
2022-09-03T11:15:40.182Z,71.44
2022-09-03T11:20:45.053Z,70.46
2022-09-03T11:25:52.559Z,68.88
2022-09-03T11:31:13.480Z,68.70
2022-09-03T11:36:28.188Z,68.71
2022-09-03T11:41:36.234Z,67.83
2022-09-03T11:46:41.596Z,68.75
2022-09-03T11:51:44.975Z,69.76
2022-09-03T11:56:50.584Z,67.28
2022-09-03T12:01:59.981Z,67.20
2022-09-03T12:07:20.100Z,65.87
2022-09-03T12:12:39.604Z,67.69
2022-09-03T12:18:13.341Z,69.33
2022-09-03T12:23:28.574Z,69.15
2022-09-03T12:28:33.880Z,69.41
2022-09-03T12:33:42.849Z,68.97
2022-09-03T12:39:10.330Z,70.02
2022-09-03T12:44:11.794Z,68.60
2022-09-03T12:49:31.882Z,67.50
2022-09-03T12:54:35.967Z,67.04
2022-09-03T12:59:40.295Z,65.31
2022-09-03T13:04:45.849Z,62.24
2022-09-03T13:09:49.420Z,62.86
2022-09-03T13:14:52.712Z,63.23
2022-09-03T13:20:22.638Z,61.52
2022-09-03T13:25:29.296Z,60.74
2022-09-03T13:30:39.512Z,61.56
2022-09-03T13:35:49.441Z,62.50
2022-09-03T13:40:57.145Z,60.81
2022-09-03T13:46:03.720Z,64.07
2022-09-03T13:51:15.947Z,59.99
2022-09-03T13:56:35.673Z,59.87
2022-09-03T14:01:54.591Z,59.66
2022-09-03T14:07:03.995Z,58.40
2022-09-03T14:12:15.364Z,57.97
2022-09-03T14:17:27.809Z,55.65
2022-09-03T14:22:45.699Z,57.56
2022-09-03T14:27:49.129Z,57.77
2022-09-03T14:33:03.280Z,58.31
2022-09-03T14:38:25.966Z,58.82
2022-09-03T14:43:49.499Z,55.87
2022-09-03T14:49:07.627Z,55.76
2022-09-03T14:54:28.716Z,55.79
2022-09-03T15:00:01.917Z,57.04
2022-09-03T15:05:12.845Z,55.62
2022-09-03T15:10:25.725Z,54.22
2022-09-03T15:15:36.137Z,56.08
2022-09-03T15:20:50.078Z,58.30
2022-09-03T15:26:16.189Z,57.37
2022-09-03T15:31:27.464Z,57.01
2022-09-03T15:36:37.384Z,56.64
2022-09-03T15:41:51.554Z,57.07
2022-09-03T15:46:57.847Z,57.88
2022-09-03T15:52:10.783Z,59.06
2022-09-03T15:57:21.467Z,61.58
2022-09-03T16:02:33.374Z,62.10
2022-09-03T16:07:50.435Z,63.46
2022-09-03T16:13:04.638Z,64.93
2022-09-03T16:18:14.759Z,70.33
2022-09-03T16:23:24.651Z,72.14
2022-09-03T16:28:32.361Z,74.69
2022-09-03T16:33:43.647Z,75.41
2022-09-03T16:38:54.297Z,76.67
2022-09-03T16:44:07.333Z,77.31
2022-09-03T16:49:37.978Z,76.02
2022-09-03T16:55:03.118Z,73.28
2022-09-03T17:00:11.584Z,71.49
2022-09-03T17:05:30.872Z,69.51
2022-09-03T17:10:44.615Z,71.35
2022-09-03T17:15:58.483Z,70.30
2022-09-03T17:21:13.069Z,71.54
2022-09-03T17:26:29.282Z,71.78
2022-09-03T17:31:51.415Z,73.41
2022-09-03T17:37:06.220Z,74.05
2022-09-03T17:42:17.331Z,75.64
2022-09-03T17:47:57.177Z,75.97
2022-09-03T17:53:05.352Z,77.21
2022-09-03T17:58:14.426Z,76.61
2022-09-03T18:03:25.538Z,77.67
2022-09-03T18:08:37.662Z,77.43
2022-09-03T18:14:01.664Z,77.60
2022-09-03T18:19:18.271Z,78.17
2022-09-03T18:24:50.810Z,79.18
2022-09-03T18:30:18.089Z,78.96
2022-09-03T18:35:39.605Z,79.02
2022-09-03T18:41:11.521Z,79.64
2022-09-03T18:52:29.500Z,78.68
2022-09-03T18:58:02.558Z,79.39
2022-09-03T19:04:00.791Z,78.15
2022-09-03T19:09:28.580Z,78.94
2022-09-03T19:14:57.748Z,78.76
2022-09-03T19:20:27.657Z,79.37
2022-09-03T19:25:50.533Z,79.74
2022-09-03T19:31:24.891Z,79.96
2022-09-03T19:36:51.119Z,80.78
2022-09-03T19:42:20.941Z,80.86
2022-09-03T19:47:52.932Z,80.52
2022-09-03T19:53:18.261Z,80.79
2022-09-03T19:58:44.529Z,81.05
2022-09-03T20:04:04.835Z,81.03
2022-09-03T20:09:27.752Z,81.29
2022-09-03T20:14:34.413Z,80.92
2022-09-03T20:19:50.468Z,80.92
2022-09-03T20:25:07.365Z,81.30
2022-09-03T20:30:16.229Z,81.70
2022-09-03T20:35:28.153Z,81.76
2022-09-03T20:40:41.586Z,82.02
2022-09-03T20:45:59.270Z,82.27
2022-09-03T20:51:12.089Z,82.25
2022-09-03T20:56:23.129Z,82.51
2022-09-03T21:01:35.552Z,82.58
2022-09-03T21:06:45.396Z,82.52
2022-09-03T21:11:54.635Z,82.32
2022-09-03T21:17:13.091Z,82.51
2022-09-03T21:22:29.011Z,82.17
2022-09-03T21:27:37.372Z,82.57
2022-09-03T21:32:47.657Z,82.51
2022-09-03T21:37:56.517Z,82.85
2022-09-03T21:43:08.575Z,83.26
2022-09-03T21:48:19.221Z,82.74
2022-09-03T21:53:28.092Z,83.27
2022-09-03T21:58:46.852Z,82.90
2022-09-03T22:03:50.968Z,83.34
2022-09-03T22:09:00.124Z,83.74
2022-09-03T22:14:10.298Z,83.71
2022-09-03T22:19:14.882Z,84.13
2022-09-03T22:24:23.451Z,83.89
2022-09-03T22:29:37.014Z,84.03
2022-09-03T22:34:57.014Z,84.56
2022-09-03T22:40:07.677Z,84.56
2022-09-03T22:45:26.697Z,84.41
2022-09-03T22:50:35.059Z,84.11
2022-09-03T22:55:42.153Z,84.01
2022-09-03T23:00:49.620Z,84.03
2022-09-03T23:06:04.432Z,83.91
2022-09-03T23:11:13.668Z,84.12
2022-09-03T23:16:25.096Z,84.01
2022-09-03T23:21:40.733Z,84.07
2022-09-03T23:26:47.529Z,84.44
2022-09-03T23:31:51.257Z,83.66
2022-09-03T23:37:35.017Z,82.76
2022-09-03T23:42:51.411Z,82.19
2022-09-03T23:48:00.483Z,81.06
2022-09-03T23:53:19.498Z,80.10
2022-09-03T23:58:37.841Z,80.41
